sensor_id;sensor_type;location;lat;lon;timestamp;P1;durP1;ratioP1;P2;durP2;ratioP2
6679;SDS011;3376;42.664;23.346;2022-08-16T00:00:28;14.60;;;13.13;;
6679;SDS011;3376;42.664;23.346;2022-08-16T00:02:59;14.20;;;13.07;;
6679;SDS011;3376;42.664;23.346;2022-08-16T00:05:27;14.73;;;13.73;;
6679;SDS011;3376;42.664;23.346;2022-08-16T00:07:55;14.17;;;13.10;;
6679;SDS011;3376;42.664;23.346;2022-08-16T00:10:23;14.00;;;13.00;;
6679;SDS011;3376;42.664;23.346;2022-08-16T00:12:51;13.67;;;12.43;;
6679;SDS011;3376;42.664;23.346;2022-08-16T00:15:20;13.83;;;12.83;;
6679;SDS011;3376;42.664;23.346;2022-08-16T00:17:49;14.07;;;13.07;;
6679;SDS011;3376;42.664;23.346;2022-08-16T00:20:18;13.97;;;12.83;;
6679;SDS011;3376;42.664;23.346;2022-08-16T00:22:48;14.13;;;12.80;;
6679;SDS011;3376;42.664;23.346;2022-08-16T00:25:16;13.77;;;12.87;;
6679;SDS011;3376;42.664;23.346;2022-08-16T00:27:44;15.03;;;13.50;;
6679;SDS011;3376;42.664;23.346;2022-08-16T00:30:11;14.07;;;12.97;;
6679;SDS011;3376;42.664;23.346;2022-08-16T00:32:40;14.60;;;13.43;;
6679;SDS011;3376;42.664;23.346;2022-08-16T00:35:10;14.53;;;13.53;;
6679;SDS011;3376;42.664;23.346;2022-08-16T00:37:40;13.67;;;12.87;;
6679;SDS011;3376;42.664;23.346;2022-08-16T00:40:08;13.43;;;12.43;;
6679;SDS011;3376;42.664;23.346;2022-08-16T00:42:36;13.03;;;12.13;;
6679;SDS011;3376;42.664;23.346;2022-08-16T00:45:05;12.97;;;12.27;;
6679;SDS011;3376;42.664;23.346;2022-08-16T00:47:39;12.93;;;12.10;;
6679;SDS011;3376;42.664;23.346;2022-08-16T00:50:10;14.03;;;13.03;;
6679;SDS011;3376;42.664;23.346;2022-08-16T00:52:37;13.07;;;12.27;;
6679;SDS011;3376;42.664;23.346;2022-08-16T00:55:06;13.67;;;12.77;;
6679;SDS011;3376;42.664;23.346;2022-08-16T00:57:34;13.63;;;12.57;;
6679;SDS011;3376;42.664;23.346;2022-08-16T01:00:02;13.47;;;12.60;;
6679;SDS011;3376;42.664;23.346;2022-08-16T01:02:31;12.70;;;11.97;;
6679;SDS011;3376;42.664;23.346;2022-08-16T01:04:58;13.43;;;12.53;;
6679;SDS011;3376;42.664;23.346;2022-08-16T01:07:25;13.13;;;12.23;;
6679;SDS011;3376;42.664;23.346;2022-08-16T01:09:52;13.43;;;12.63;;
6679;SDS011;3376;42.664;23.346;2022-08-16T01:12:20;13.47;;;12.53;;
6679;SDS011;3376;42.664;23.346;2022-08-16T01:14:49;13.30;;;12.40;;
6679;SDS011;3376;42.664;23.346;2022-08-16T01:17:20;14.07;;;12.87;;
6679;SDS011;3376;42.664;23.346;2022-08-16T01:19:49;13.53;;;12.63;;
6679;SDS011;3376;42.664;23.346;2022-08-16T01:22:34;13.87;;;13.07;;
6679;SDS011;3376;42.664;23.346;2022-08-16T01:25:12;13.73;;;12.53;;
6679;SDS011;3376;42.664;23.346;2022-08-16T01:27:44;13.83;;;12.97;;
6679;SDS011;3376;42.664;23.346;2022-08-16T01:30:15;13.10;;;11.97;;
6679;SDS011;3376;42.664;23.346;2022-08-16T01:32:44;13.90;;;12.80;;
6679;SDS011;3376;42.664;23.346;2022-08-16T01:35:13;13.97;;;12.73;;
6679;SDS011;3376;42.664;23.346;2022-08-16T01:37:46;13.47;;;12.67;;
6679;SDS011;3376;42.664;23.346;2022-08-16T01:40:17;14.33;;;13.20;;
6679;SDS011;3376;42.664;23.346;2022-08-16T01:42:46;14.53;;;13.53;;
6679;SDS011;3376;42.664;23.346;2022-08-16T01:45:14;13.83;;;12.93;;
6679;SDS011;3376;42.664;23.346;2022-08-16T01:47:42;12.53;;;11.53;;
6679;SDS011;3376;42.664;23.346;2022-08-16T01:50:11;14.20;;;13.00;;
6679;SDS011;3376;42.664;23.346;2022-08-16T01:52:37;13.40;;;12.70;;
6679;SDS011;3376;42.664;23.346;2022-08-16T01:55:06;14.43;;;13.63;;
6679;SDS011;3376;42.664;23.346;2022-08-16T01:57:35;13.77;;;12.87;;
6679;SDS011;3376;42.664;23.346;2022-08-16T02:00:03;14.07;;;12.80;;
6679;SDS011;3376;42.664;23.346;2022-08-16T02:02:32;13.50;;;12.70;;
6679;SDS011;3376;42.664;23.346;2022-08-16T02:04:59;14.07;;;12.97;;
6679;SDS011;3376;42.664;23.346;2022-08-16T02:07:26;12.80;;;11.87;;
6679;SDS011;3376;42.664;23.346;2022-08-16T02:09:53;12.70;;;11.97;;
6679;SDS011;3376;42.664;23.346;2022-08-16T02:12:20;13.23;;;12.53;;
6679;SDS011;3376;42.664;23.346;2022-08-16T02:14:48;14.37;;;13.43;;
6679;SDS011;3376;42.664;23.346;2022-08-16T02:17:15;13.40;;;12.70;;
6679;SDS011;3376;42.664;23.346;2022-08-16T02:19:42;13.87;;;12.93;;
6679;SDS011;3376;42.664;23.346;2022-08-16T02:22:13;14.00;;;13.10;;
6679;SDS011;3376;42.664;23.346;2022-08-16T02:24:42;14.10;;;13.27;;
6679;SDS011;3376;42.664;23.346;2022-08-16T02:27:10;13.70;;;12.77;;
6679;SDS011;3376;42.664;23.346;2022-08-16T02:29:37;14.20;;;13.47;;
6679;SDS011;3376;42.664;23.346;2022-08-16T02:32:06;12.43;;;11.73;;
6679;SDS011;3376;42.664;23.346;2022-08-16T02:34:34;13.83;;;13.13;;
6679;SDS011;3376;42.664;23.346;2022-08-16T02:37:01;14.27;;;13.20;;
6679;SDS011;3376;42.664;23.346;2022-08-16T02:39:28;13.73;;;12.93;;
6679;SDS011;3376;42.664;23.346;2022-08-16T02:41:55;12.80;;;11.97;;
6679;SDS011;3376;42.664;23.346;2022-08-16T02:44:22;13.93;;;13.03;;
6679;SDS011;3376;42.664;23.346;2022-08-16T02:46:50;13.90;;;13.10;;
6679;SDS011;3376;42.664;23.346;2022-08-16T02:49:18;15.00;;;13.90;;
6679;SDS011;3376;42.664;23.346;2022-08-16T02:51:45;14.07;;;13.00;;
6679;SDS011;3376;42.664;23.346;2022-08-16T02:54:12;13.57;;;12.83;;
6679;SDS011;3376;42.664;23.346;2022-08-16T02:56:40;15.73;;;14.57;;
6679;SDS011;3376;42.664;23.346;2022-08-16T02:59:07;15.10;;;13.87;;
6679;SDS011;3376;42.664;23.346;2022-08-16T03:01:36;15.33;;;14.33;;
6679;SDS011;3376;42.664;23.346;2022-08-16T03:04:05;15.70;;;14.40;;
6679;SDS011;3376;42.664;23.346;2022-08-16T03:06:34;15.57;;;14.03;;
6679;SDS011;3376;42.664;23.346;2022-08-16T03:09:01;15.77;;;14.67;;
6679;SDS011;3376;42.664;23.346;2022-08-16T03:11:29;15.17;;;14.27;;
6679;SDS011;3376;42.664;23.346;2022-08-16T03:13:56;15.70;;;14.67;;
6679;SDS011;3376;42.664;23.346;2022-08-16T03:16:24;14.00;;;13.30;;
6679;SDS011;3376;42.664;23.346;2022-08-16T03:18:52;15.17;;;14.17;;
6679;SDS011;3376;42.664;23.346;2022-08-16T03:21:20;15.77;;;14.67;;
6679;SDS011;3376;42.664;23.346;2022-08-16T03:23:48;17.33;;;16.07;;
6679;SDS011;3376;42.664;23.346;2022-08-16T03:26:15;16.03;;;15.03;;
6679;SDS011;3376;42.664;23.346;2022-08-16T03:28:42;13.77;;;13.13;;
6679;SDS011;3376;42.664;23.346;2022-08-16T03:31:09;16.00;;;14.73;;
6679;SDS011;3376;42.664;23.346;2022-08-16T03:33:36;16.80;;;15.57;;
6679;SDS011;3376;42.664;23.346;2022-08-16T03:36:03;16.80;;;15.70;;
6679;SDS011;3376;42.664;23.346;2022-08-16T03:38:31;15.70;;;14.80;;
6679;SDS011;3376;42.664;23.346;2022-08-16T03:41:00;16.33;;;15.10;;
6679;SDS011;3376;42.664;23.346;2022-08-16T03:43:29;15.20;;;14.20;;
6679;SDS011;3376;42.664;23.346;2022-08-16T03:45:56;14.67;;;13.63;;
6679;SDS011;3376;42.664;23.346;2022-08-16T03:48:25;15.63;;;14.27;;
6679;SDS011;3376;42.664;23.346;2022-08-16T03:50:56;15.60;;;14.23;;
6679;SDS011;3376;42.664;23.346;2022-08-16T03:53:23;15.83;;;14.63;;
6679;SDS011;3376;42.664;23.346;2022-08-16T03:55:50;15.13;;;14.33;;
6679;SDS011;3376;42.664;23.346;2022-08-16T03:58:18;15.07;;;14.07;;
6679;SDS011;3376;42.664;23.346;2022-08-16T04:00:46;16.60;;;15.37;;
6679;SDS011;3376;42.664;23.346;2022-08-16T04:03:13;15.53;;;14.60;;
6679;SDS011;3376;42.664;23.346;2022-08-16T04:05:41;14.87;;;14.07;;
6679;SDS011;3376;42.664;23.346;2022-08-16T04:08:11;15.47;;;14.33;;
6679;SDS011;3376;42.664;23.346;2022-08-16T04:10:38;16.47;;;15.23;;
6679;SDS011;3376;42.664;23.346;2022-08-16T04:13:06;16.00;;;14.80;;
6679;SDS011;3376;42.664;23.346;2022-08-16T04:15:34;15.87;;;14.83;;
6679;SDS011;3376;42.664;23.346;2022-08-16T04:18:02;15.87;;;14.70;;
6679;SDS011;3376;42.664;23.346;2022-08-16T04:20:29;15.13;;;14.33;;
6679;SDS011;3376;42.664;23.346;2022-08-16T04:22:57;17.37;;;16.00;;
6679;SDS011;3376;42.664;23.346;2022-08-16T04:25:24;15.77;;;14.40;;
6679;SDS011;3376;42.664;23.346;2022-08-16T04:27:51;16.50;;;15.10;;
6679;SDS011;3376;42.664;23.346;2022-08-16T04:30:18;16.50;;;15.10;;
6679;SDS011;3376;42.664;23.346;2022-08-16T04:32:47;16.20;;;15.03;;
6679;SDS011;3376;42.664;23.346;2022-08-16T04:35:15;16.00;;;14.97;;
6679;SDS011;3376;42.664;23.346;2022-08-16T04:37:43;17.07;;;15.67;;
6679;SDS011;3376;42.664;23.346;2022-08-16T04:40:11;17.37;;;16.37;;
6679;SDS011;3376;42.664;23.346;2022-08-16T04:42:38;17.70;;;16.37;;
6679;SDS011;3376;42.664;23.346;2022-08-16T04:45:07;18.27;;;15.33;;
6679;SDS011;3376;42.664;23.346;2022-08-16T04:47:35;17.67;;;16.03;;
6679;SDS011;3376;42.664;23.346;2022-08-16T04:50:05;18.27;;;16.70;;
6679;SDS011;3376;42.664;23.346;2022-08-16T04:52:33;18.00;;;16.60;;
6679;SDS011;3376;42.664;23.346;2022-08-16T04:55:02;18.57;;;16.90;;
6679;SDS011;3376;42.664;23.346;2022-08-16T04:57:31;17.27;;;15.87;;
6679;SDS011;3376;42.664;23.346;2022-08-16T04:59:58;17.07;;;15.97;;
6679;SDS011;3376;42.664;23.346;2022-08-16T05:02:25;17.13;;;15.87;;
6679;SDS011;3376;42.664;23.346;2022-08-16T05:04:52;17.27;;;16.03;;
6679;SDS011;3376;42.664;23.346;2022-08-16T05:07:20;17.73;;;16.23;;
6679;SDS011;3376;42.664;23.346;2022-08-16T05:09:47;17.47;;;16.27;;
6679;SDS011;3376;42.664;23.346;2022-08-16T05:12:13;16.47;;;15.13;;
6679;SDS011;3376;42.664;23.346;2022-08-16T05:14:40;17.33;;;15.90;;
6679;SDS011;3376;42.664;23.346;2022-08-16T05:17:07;15.93;;;14.93;;
6679;SDS011;3376;42.664;23.346;2022-08-16T05:19:34;17.27;;;16.03;;
6679;SDS011;3376;42.664;23.346;2022-08-16T05:22:01;15.97;;;14.97;;
6679;SDS011;3376;42.664;23.346;2022-08-16T05:24:29;16.70;;;15.40;;
6679;SDS011;3376;42.664;23.346;2022-08-16T05:26:56;17.43;;;15.87;;
6679;SDS011;3376;42.664;23.346;2022-08-16T05:29:23;16.70;;;15.17;;
6679;SDS011;3376;42.664;23.346;2022-08-16T05:31:50;16.33;;;15.10;;
6679;SDS011;3376;42.664;23.346;2022-08-16T05:34:17;18.27;;;16.73;;
6679;SDS011;3376;42.664;23.346;2022-08-16T05:36:45;17.40;;;16.27;;
6679;SDS011;3376;42.664;23.346;2022-08-16T05:39:13;17.23;;;16.07;;
6679;SDS011;3376;42.664;23.346;2022-08-16T05:41:42;17.57;;;16.30;;
6679;SDS011;3376;42.664;23.346;2022-08-16T05:44:09;16.63;;;15.40;;
6679;SDS011;3376;42.664;23.346;2022-08-16T05:46:35;17.50;;;16.13;;
6679;SDS011;3376;42.664;23.346;2022-08-16T05:49:02;17.10;;;15.57;;
6679;SDS011;3376;42.664;23.346;2022-08-16T05:51:29;16.73;;;15.57;;
6679;SDS011;3376;42.664;23.346;2022-08-16T05:53:56;16.70;;;15.57;;
6679;SDS011;3376;42.664;23.346;2022-08-16T05:56:23;16.57;;;15.43;;
6679;SDS011;3376;42.664;23.346;2022-08-16T05:58:51;17.10;;;15.80;;
6679;SDS011;3376;42.664;23.346;2022-08-16T06:01:18;15.37;;;14.17;;
6679;SDS011;3376;42.664;23.346;2022-08-16T06:03:45;16.40;;;15.30;;
6679;SDS011;3376;42.664;23.346;2022-08-16T06:06:12;16.93;;;15.60;;
6679;SDS011;3376;42.664;23.346;2022-08-16T06:08:38;15.27;;;14.27;;
6679;SDS011;3376;42.664;23.346;2022-08-16T06:11:05;16.60;;;14.93;;
6679;SDS011;3376;42.664;23.346;2022-08-16T06:13:34;16.47;;;15.23;;
6679;SDS011;3376;42.664;23.346;2022-08-16T06:16:03;17.93;;;16.57;;
6679;SDS011;3376;42.664;23.346;2022-08-16T06:18:31;15.83;;;14.80;;
6679;SDS011;3376;42.664;23.346;2022-08-16T06:20:58;16.67;;;15.47;;
6679;SDS011;3376;42.664;23.346;2022-08-16T06:23:25;18.43;;;16.70;;
6679;SDS011;3376;42.664;23.346;2022-08-16T06:25:52;15.27;;;14.17;;
6679;SDS011;3376;42.664;23.346;2022-08-16T06:28:19;15.43;;;14.33;;
6679;SDS011;3376;42.664;23.346;2022-08-16T06:30:46;14.93;;;14.00;;
6679;SDS011;3376;42.664;23.346;2022-08-16T06:33:15;16.27;;;15.17;;
6679;SDS011;3376;42.664;23.346;2022-08-16T06:35:43;13.93;;;13.13;;
6679;SDS011;3376;42.664;23.346;2022-08-16T06:38:11;16.00;;;14.77;;
6679;SDS011;3376;42.664;23.346;2022-08-16T06:40:38;13.63;;;12.73;;
6679;SDS011;3376;42.664;23.346;2022-08-16T06:43:05;13.80;;;12.77;;
6679;SDS011;3376;42.664;23.346;2022-08-16T06:45:32;14.47;;;13.30;;
6679;SDS011;3376;42.664;23.346;2022-08-16T06:48:02;15.57;;;14.27;;
6679;SDS011;3376;42.664;23.346;2022-08-16T06:50:30;14.67;;;13.77;;
6679;SDS011;3376;42.664;23.346;2022-08-16T06:52:57;16.93;;;14.77;;
6679;SDS011;3376;42.664;23.346;2022-08-16T06:55:25;15.07;;;14.03;;
6679;SDS011;3376;42.664;23.346;2022-08-16T06:57:53;14.30;;;13.17;;
6679;SDS011;3376;42.664;23.346;2022-08-16T07:00:20;14.03;;;13.07;;
6679;SDS011;3376;42.664;23.346;2022-08-16T07:02:48;13.77;;;12.90;;
6679;SDS011;3376;42.664;23.346;2022-08-16T07:05:16;14.17;;;13.00;;
6679;SDS011;3376;42.664;23.346;2022-08-16T07:07:46;15.37;;;13.93;;
6679;SDS011;3376;42.664;23.346;2022-08-16T07:10:16;14.03;;;13.23;;
6679;SDS011;3376;42.664;23.346;2022-08-16T07:12:44;13.13;;;12.43;;
6679;SDS011;3376;42.664;23.346;2022-08-16T07:15:14;15.75;;;14.75;;
6679;SDS011;3376;42.664;23.346;2022-08-16T07:17:42;14.23;;;13.32;;
6679;SDS011;3376;42.664;23.346;2022-08-16T07:20:10;14.82;;;13.45;;
6679;SDS011;3376;42.664;23.346;2022-08-16T07:22:38;14.70;;;13.85;;
6679;SDS011;3376;42.664;23.346;2022-08-16T07:25:09;14.98;;;13.75;;
6679;SDS011;3376;42.664;23.346;2022-08-16T07:27:37;13.40;;;12.30;;
6679;SDS011;3376;42.664;23.346;2022-08-16T07:30:05;17.30;;;13.68;;
6679;SDS011;3376;42.664;23.346;2022-08-16T07:32:34;14.05;;;12.52;;
6679;SDS011;3376;42.664;23.346;2022-08-16T07:35:01;13.52;;;12.27;;
6679;SDS011;3376;42.664;23.346;2022-08-16T07:37:28;13.93;;;12.82;;
6679;SDS011;3376;42.664;23.346;2022-08-16T07:39:55;13.80;;;12.63;;
6679;SDS011;3376;42.664;23.346;2022-08-16T07:42:24;14.68;;;13.55;;
6679;SDS011;3376;42.664;23.346;2022-08-16T07:44:51;12.48;;;11.88;;
6679;SDS011;3376;42.664;23.346;2022-08-16T07:47:18;13.38;;;12.18;;
6679;SDS011;3376;42.664;23.346;2022-08-16T07:49:44;14.60;;;12.93;;
6679;SDS011;3376;42.664;23.346;2022-08-16T07:52:11;14.70;;;11.93;;
6679;SDS011;3376;42.664;23.346;2022-08-16T07:54:38;14.13;;;12.88;;
6679;SDS011;3376;42.664;23.346;2022-08-16T07:57:05;13.02;;;12.05;;
6679;SDS011;3376;42.664;23.346;2022-08-16T07:59:33;13.20;;;12.30;;
6679;SDS011;3376;42.664;23.346;2022-08-16T08:02:00;15.23;;;13.65;;
6679;SDS011;3376;42.664;23.346;2022-08-16T08:04:28;12.88;;;12.02;;
6679;SDS011;3376;42.664;23.346;2022-08-16T08:06:56;14.27;;;12.82;;
6679;SDS011;3376;42.664;23.346;2022-08-16T08:09:24;13.80;;;12.77;;
6679;SDS011;3376;42.664;23.346;2022-08-16T08:11:51;12.93;;;12.02;;
6679;SDS011;3376;42.664;23.346;2022-08-16T08:14:17;20.92;;;19.30;;
6679;SDS011;3376;42.664;23.346;2022-08-16T08:16:46;15.00;;;13.10;;
6679;SDS011;3376;42.664;23.346;2022-08-16T08:19:13;13.60;;;12.60;;
6679;SDS011;3376;42.664;23.346;2022-08-16T08:21:41;14.45;;;13.10;;
6679;SDS011;3376;42.664;23.346;2022-08-16T08:24:08;13.15;;;12.07;;
6679;SDS011;3376;42.664;23.346;2022-08-16T08:26:36;13.80;;;12.80;;
6679;SDS011;3376;42.664;23.346;2022-08-16T08:29:03;13.45;;;12.43;;
6679;SDS011;3376;42.664;23.346;2022-08-16T08:31:30;12.52;;;11.75;;
6679;SDS011;3376;42.664;23.346;2022-08-16T08:34:01;12.85;;;11.50;;
6679;SDS011;3376;42.664;23.346;2022-08-16T08:36:30;11.15;;;10.45;;
6679;SDS011;3376;42.664;23.346;2022-08-16T08:38:58;13.35;;;12.13;;
6679;SDS011;3376;42.664;23.346;2022-08-16T08:41:25;10.57;;;9.98;;
6679;SDS011;3376;42.664;23.346;2022-08-16T08:43:52;11.07;;;10.18;;
6679;SDS011;3376;42.664;23.346;2022-08-16T08:46:20;11.38;;;10.38;;
6679;SDS011;3376;42.664;23.346;2022-08-16T08:48:47;10.32;;;9.48;;
6679;SDS011;3376;42.664;23.346;2022-08-16T08:51:16;9.57;;;8.95;;
6679;SDS011;3376;42.664;23.346;2022-08-16T08:53:43;8.98;;;8.30;;
6679;SDS011;3376;42.664;23.346;2022-08-16T08:56:10;7.93;;;7.53;;
6679;SDS011;3376;42.664;23.346;2022-08-16T08:58:38;10.85;;;9.50;;
6679;SDS011;3376;42.664;23.346;2022-08-16T09:01:05;6.43;;;5.93;;
6679;SDS011;3376;42.664;23.346;2022-08-16T09:03:33;8.60;;;8.05;;
6679;SDS011;3376;42.664;23.346;2022-08-16T09:06:00;7.97;;;7.63;;
6679;SDS011;3376;42.664;23.346;2022-08-16T09:08:29;6.40;;;6.20;;
6679;SDS011;3376;42.664;23.346;2022-08-16T09:10:56;5.78;;;5.43;;
6679;SDS011;3376;42.664;23.346;2022-08-16T09:13:24;7.45;;;7.15;;
6679;SDS011;3376;42.664;23.346;2022-08-16T09:15:52;5.78;;;5.53;;
6679;SDS011;3376;42.664;23.346;2022-08-16T09:18:19;5.47;;;5.22;;
6679;SDS011;3376;42.664;23.346;2022-08-16T09:20:46;6.38;;;6.07;;
6679;SDS011;3376;42.664;23.346;2022-08-16T09:23:16;5.88;;;5.35;;
6679;SDS011;3376;42.664;23.346;2022-08-16T09:25:44;7.40;;;6.85;;
6679;SDS011;3376;42.664;23.346;2022-08-16T09:28:11;6.50;;;6.20;;
6679;SDS011;3376;42.664;23.346;2022-08-16T09:30:39;5.75;;;5.50;;
6679;SDS011;3376;42.664;23.346;2022-08-16T09:33:07;6.35;;;5.88;;
6679;SDS011;3376;42.664;23.346;2022-08-16T09:35:34;6.43;;;6.10;;
6679;SDS011;3376;42.664;23.346;2022-08-16T09:38:02;6.18;;;5.90;;
6679;SDS011;3376;42.664;23.346;2022-08-16T09:40:29;6.10;;;5.90;;
6679;SDS011;3376;42.664;23.346;2022-08-16T09:42:58;5.65;;;5.30;;
6679;SDS011;3376;42.664;23.346;2022-08-16T09:45:25;6.22;;;5.93;;
6679;SDS011;3376;42.664;23.346;2022-08-16T09:47:54;6.28;;;6.03;;
6679;SDS011;3376;42.664;23.346;2022-08-16T09:50:21;7.10;;;6.80;;
6679;SDS011;3376;42.664;23.346;2022-08-16T09:52:49;6.65;;;6.25;;
6679;SDS011;3376;42.664;23.346;2022-08-16T09:55:16;5.82;;;5.53;;
6679;SDS011;3376;42.664;23.346;2022-08-16T09:57:43;6.25;;;5.75;;
6679;SDS011;3376;42.664;23.346;2022-08-16T10:00:11;6.07;;;5.68;;
6679;SDS011;3376;42.664;23.346;2022-08-16T10:02:39;5.70;;;5.50;;
6679;SDS011;3376;42.664;23.346;2022-08-16T10:05:07;6.72;;;6.32;;
6679;SDS011;3376;42.664;23.346;2022-08-16T10:07:35;5.70;;;5.50;;
6679;SDS011;3376;42.664;23.346;2022-08-16T10:10:02;5.85;;;5.65;;
6679;SDS011;3376;42.664;23.346;2022-08-16T10:12:30;6.07;;;5.70;;
6679;SDS011;3376;42.664;23.346;2022-08-16T10:15:17;6.20;;;5.70;;
6679;SDS011;3376;42.664;23.346;2022-08-16T10:17:46;5.82;;;5.45;;
6679;SDS011;3376;42.664;23.346;2022-08-16T10:20:16;6.07;;;5.78;;
6679;SDS011;3376;42.664;23.346;2022-08-16T10:22:43;5.63;;;5.32;;
6679;SDS011;3376;42.664;23.346;2022-08-16T10:25:10;6.47;;;6.00;;
6679;SDS011;3376;42.664;23.346;2022-08-16T10:27:37;5.72;;;5.50;;
6679;SDS011;3376;42.664;23.346;2022-08-16T10:30:04;5.82;;;5.53;;
6679;SDS011;3376;42.664;23.346;2022-08-16T10:32:34;6.15;;;5.85;;
6679;SDS011;3376;42.664;23.346;2022-08-16T10:35:01;5.75;;;5.43;;
6679;SDS011;3376;42.664;23.346;2022-08-16T10:37:28;5.78;;;5.53;;
6679;SDS011;3376;42.664;23.346;2022-08-16T10:39:55;7.13;;;6.82;;
6679;SDS011;3376;42.664;23.346;2022-08-16T10:42:22;6.00;;;5.65;;
6679;SDS011;3376;42.664;23.346;2022-08-16T10:44:49;6.07;;;5.85;;
6679;SDS011;3376;42.664;23.346;2022-08-16T10:47:16;5.55;;;5.25;;
6679;SDS011;3376;42.664;23.346;2022-08-16T10:49:44;5.00;;;4.80;;
6679;SDS011;3376;42.664;23.346;2022-08-16T10:52:11;5.43;;;5.15;;
6679;SDS011;3376;42.664;23.346;2022-08-16T10:54:38;6.32;;;5.82;;
6679;SDS011;3376;42.664;23.346;2022-08-16T10:57:05;5.95;;;5.75;;
6679;SDS011;3376;42.664;23.346;2022-08-16T10:59:32;6.18;;;5.88;;
6679;SDS011;3376;42.664;23.346;2022-08-16T11:02:00;6.35;;;6.05;;
6679;SDS011;3376;42.664;23.346;2022-08-16T11:04:27;5.95;;;5.75;;
6679;SDS011;3376;42.664;23.346;2022-08-16T11:06:56;6.68;;;6.28;;
6679;SDS011;3376;42.664;23.346;2022-08-16T11:09:23;5.97;;;5.68;;
6679;SDS011;3376;42.664;23.346;2022-08-16T11:11:49;5.97;;;5.72;;
6679;SDS011;3376;42.664;23.346;2022-08-16T11:14:16;5.53;;;5.32;;
6679;SDS011;3376;42.664;23.346;2022-08-16T11:16:44;4.75;;;4.47;;
6679;SDS011;3376;42.664;23.346;2022-08-16T11:19:11;6.00;;;5.53;;
6679;SDS011;3376;42.664;23.346;2022-08-16T11:21:38;5.75;;;5.55;;
6679;SDS011;3376;42.664;23.346;2022-08-16T11:24:07;5.97;;;5.47;;
6679;SDS011;3376;42.664;23.346;2022-08-16T11:26:34;7.93;;;7.32;;
6679;SDS011;3376;42.664;23.346;2022-08-16T11:29:01;7.10;;;6.47;;
6679;SDS011;3376;42.664;23.346;2022-08-16T11:31:28;6.50;;;6.18;;
6679;SDS011;3376;42.664;23.346;2022-08-16T11:33:55;7.70;;;7.15;;
6679;SDS011;3376;42.664;23.346;2022-08-16T11:36:21;5.85;;;5.65;;
6679;SDS011;3376;42.664;23.346;2022-08-16T11:38:48;5.25;;;5.05;;
6679;SDS011;3376;42.664;23.346;2022-08-16T11:41:17;5.93;;;5.63;;
6679;SDS011;3376;42.664;23.346;2022-08-16T11:43:44;5.82;;;5.45;;
6679;SDS011;3376;42.664;23.346;2022-08-16T11:46:11;5.80;;;5.50;;
6679;SDS011;3376;42.664;23.346;2022-08-16T11:48:41;6.70;;;6.22;;
6679;SDS011;3376;42.664;23.346;2022-08-16T11:51:09;7.03;;;6.55;;
6679;SDS011;3376;42.664;23.346;2022-08-16T11:53:37;6.20;;;5.57;;
6679;SDS011;3376;42.664;23.346;2022-08-16T11:56:04;5.95;;;4.97;;
6679;SDS011;3376;42.664;23.346;2022-08-16T11:58:33;15.18;;;5.22;;
6679;SDS011;3376;42.664;23.346;2022-08-16T12:01:03;5.70;;;5.30;;
6679;SDS011;3376;42.664;23.346;2022-08-16T12:03:32;5.68;;;5.28;;
6679;SDS011;3376;42.664;23.346;2022-08-16T12:06:00;4.90;;;4.70;;
6679;SDS011;3376;42.664;23.346;2022-08-16T12:08:29;5.40;;;4.97;;
6679;SDS011;3376;42.664;23.346;2022-08-16T12:10:56;5.07;;;4.88;;
6679;SDS011;3376;42.664;23.346;2022-08-16T12:13:24;5.28;;;4.78;;
6679;SDS011;3376;42.664;23.346;2022-08-16T12:15:52;4.45;;;4.25;;
6679;SDS011;3376;42.664;23.346;2022-08-16T12:18:20;4.63;;;4.43;;
6679;SDS011;3376;42.664;23.346;2022-08-16T12:20:47;4.85;;;4.65;;
6679;SDS011;3376;42.664;23.346;2022-08-16T12:23:14;4.57;;;4.47;;
6679;SDS011;3376;42.664;23.346;2022-08-16T12:25:41;5.47;;;4.85;;
6679;SDS011;3376;42.664;23.346;2022-08-16T12:28:09;5.50;;;5.18;;
6679;SDS011;3376;42.664;23.346;2022-08-16T12:30:38;5.25;;;4.85;;
6679;SDS011;3376;42.664;23.346;2022-08-16T12:33:09;4.95;;;4.60;;
6679;SDS011;3376;42.664;23.346;2022-08-16T12:35:38;4.97;;;4.68;;
6679;SDS011;3376;42.664;23.346;2022-08-16T12:38:06;5.78;;;5.57;;
6679;SDS011;3376;42.664;23.346;2022-08-16T12:40:35;5.45;;;5.25;;
6679;SDS011;3376;42.664;23.346;2022-08-16T12:43:04;4.97;;;4.63;;
6679;SDS011;3376;42.664;23.346;2022-08-16T12:45:33;5.70;;;5.45;;
6679;SDS011;3376;42.664;23.346;2022-08-16T12:48:03;5.65;;;5.38;;
6679;SDS011;3376;42.664;23.346;2022-08-16T12:50:49;5.50;;;5.20;;
6679;SDS011;3376;42.664;23.346;2022-08-16T12:53:16;5.95;;;5.53;;
6679;SDS011;3376;42.664;23.346;2022-08-16T12:55:44;5.60;;;5.40;;
6679;SDS011;3376;42.664;23.346;2022-08-16T12:58:12;5.93;;;5.53;;
6679;SDS011;3376;42.664;23.346;2022-08-16T13:00:40;6.10;;;5.70;;
6679;SDS011;3376;42.664;23.346;2022-08-16T13:03:07;5.70;;;5.05;;
6679;SDS011;3376;42.664;23.346;2022-08-16T13:05:37;5.95;;;5.57;;
6679;SDS011;3376;42.664;23.346;2022-08-16T13:08:07;6.05;;;5.60;;
6679;SDS011;3376;42.664;23.346;2022-08-16T13:10:35;5.43;;;4.97;;
6679;SDS011;3376;42.664;23.346;2022-08-16T13:13:02;6.43;;;5.90;;
6679;SDS011;3376;42.664;23.346;2022-08-16T13:15:29;5.22;;;4.93;;
6679;SDS011;3376;42.664;23.346;2022-08-16T13:17:56;5.88;;;5.45;;
6679;SDS011;3376;42.664;23.346;2022-08-16T13:20:24;5.18;;;4.93;;
6679;SDS011;3376;42.664;23.346;2022-08-16T13:22:53;4.78;;;4.57;;
6679;SDS011;3376;42.664;23.346;2022-08-16T13:25:26;5.35;;;4.93;;
6679;SDS011;3376;42.664;23.346;2022-08-16T13:27:55;4.80;;;4.40;;
6679;SDS011;3376;42.664;23.346;2022-08-16T13:30:23;6.22;;;5.82;;
6679;SDS011;3376;42.664;23.346;2022-08-16T13:32:51;5.10;;;4.88;;
6679;SDS011;3376;42.664;23.346;2022-08-16T13:35:18;5.43;;;4.85;;
6679;SDS011;3376;42.664;23.346;2022-08-16T13:37:46;4.35;;;4.10;;
6679;SDS011;3376;42.664;23.346;2022-08-16T13:40:13;4.38;;;3.97;;
6679;SDS011;3376;42.664;23.346;2022-08-16T13:42:42;4.43;;;4.13;;
6679;SDS011;3376;42.664;23.346;2022-08-16T13:45:11;4.53;;;4.13;;
6679;SDS011;3376;42.664;23.346;2022-08-16T13:47:39;4.65;;;3.55;;
6679;SDS011;3376;42.664;23.346;2022-08-16T13:50:06;3.80;;;3.60;;
6679;SDS011;3376;42.664;23.346;2022-08-16T13:52:34;3.83;;;3.50;;
6679;SDS011;3376;42.664;23.346;2022-08-16T13:55:02;3.85;;;3.40;;
6679;SDS011;3376;42.664;23.346;2022-08-16T13:57:29;5.47;;;3.63;;
6679;SDS011;3376;42.664;23.346;2022-08-16T13:59:58;3.67;;;3.38;;
6679;SDS011;3376;42.664;23.346;2022-08-16T14:02:25;4.22;;;3.13;;
6679;SDS011;3376;42.664;23.346;2022-08-16T14:04:52;5.28;;;3.30;;
6679;SDS011;3376;42.664;23.346;2022-08-16T14:07:19;3.10;;;2.90;;
6679;SDS011;3376;42.664;23.346;2022-08-16T14:09:45;3.72;;;2.80;;
6679;SDS011;3376;42.664;23.346;2022-08-16T14:12:16;4.00;;;3.22;;
6679;SDS011;3376;42.664;23.346;2022-08-16T14:14:45;3.75;;;3.47;;
6679;SDS011;3376;42.664;23.346;2022-08-16T14:17:16;3.40;;;3.10;;
6679;SDS011;3376;42.664;23.346;2022-08-16T14:19:44;3.80;;;3.50;;
6679;SDS011;3376;42.664;23.346;2022-08-16T14:22:14;3.10;;;2.90;;
6679;SDS011;3376;42.664;23.346;2022-08-16T14:24:43;3.50;;;3.40;;
6679;SDS011;3376;42.664;23.346;2022-08-16T14:27:11;3.85;;;3.22;;
6679;SDS011;3376;42.664;23.346;2022-08-16T14:29:38;3.78;;;3.47;;
6679;SDS011;3376;42.664;23.346;2022-08-16T14:32:05;4.45;;;3.58;;
6679;SDS011;3376;42.664;23.346;2022-08-16T14:34:34;3.85;;;3.53;;
6679;SDS011;3376;42.664;23.346;2022-08-16T14:37:01;4.63;;;4.10;;
6679;SDS011;3376;42.664;23.346;2022-08-16T14:39:29;3.38;;;3.28;;
6679;SDS011;3376;42.664;23.346;2022-08-16T14:42:01;6.10;;;3.60;;
6679;SDS011;3376;42.664;23.346;2022-08-16T14:44:30;3.42;;;3.33;;
6679;SDS011;3376;42.664;23.346;2022-08-16T14:46:57;3.83;;;3.53;;
6679;SDS011;3376;42.664;23.346;2022-08-16T14:49:24;9.65;;;3.55;;